Time;durP1;ratioP1;P1;durP2;ratioP2;P2;SDS_P1;SDS_P2;PMS_P1;PMS_P2;Temp;Humidity;BMP_temperature;BMP_pressure;BME280_temperature;BME280_humidity;BME280_pressure;Samples;Min_cycle;Max_cycle;Signal;HPM_P1;HPM_P2
2021/05/10 00:00:22;;;;;;;4.45;1.80;;;19.00;81.40;;;;;;5038293;28;20040;-84
2021/05/10 00:02:48;;;;;;;4.30;2.17;;;19.00;81.50;;;;;;5041019;28;20035;-85
2021/05/10 00:05:15;;;;;;;4.80;3.35;;;19.00;81.60;;;;;;5074505;28;20047;-84
2021/05/10 00:07:42;;;;;;;6.78;2.35;;;19.00;82.00;;;;;;5051863;28;20040;-84
2021/05/10 00:10:10;;;;;;;3.75;2.38;;;18.90;82.10;;;;;;5068857;28;20048;-84
2021/05/10 00:12:44;;;;;;;4.80;2.35;;;18.90;82.20;;;;;;5063066;28;20048;-84
2021/05/10 00:15:15;;;;;;;2.58;2.38;;;18.90;82.30;;;;;;5088539;28;20058;-84
2021/05/10 00:17:42;;;;;;;3.88;3.22;;;18.90;82.50;;;;;;5070736;28;20896;-84
2021/05/10 00:20:09;;;;;;;2.92;2.65;;;18.80;82.70;;;;;;5071174;28;20039;-84
2021/05/10 00:22:36;;;;;;;5.63;4.32;;;18.80;83.00;;;;;;5072668;28;20070;-84
2021/05/10 00:25:03;;;;;;;4.15;3.33;;;18.80;83.50;;;;;;5071117;28;20059;-84
2021/05/10 00:27:30;;;;;;;6.50;3.97;;;18.80;83.70;;;;;;5071927;28;20101;-84
2021/05/10 00:30:00;;;;;;;4.50;3.20;;;18.70;83.80;;;;;;5054880;28;20426;-84
2021/05/10 00:32:27;;;;;;;5.00;3.97;;;18.80;83.90;;;;;;5073205;28;20047;-84
2021/05/10 00:34:53;;;;;;;6.53;3.30;;;18.70;83.80;;;;;;5072331;28;20042;-84
2021/05/10 00:37:23;;;;;;;3.58;2.53;;;18.80;83.80;;;;;;5088146;28;20063;-84
2021/05/10 00:39:50;;;;;;;6.18;3.47;;;18.80;83.70;;;;;;5070920;28;20043;-85
2021/05/10 00:42:20;;;;;;;4.38;3.08;;;18.80;83.60;;;;;;5086672;28;20040;-84
2021/05/10 00:44:50;;;;;;;7.25;2.22;;;18.80;83.50;;;;;;5070874;28;20040;-84
2021/05/10 00:47:20;;;;;;;3.30;2.63;;;18.80;83.50;;;;;;5089048;28;20043;-85
2021/05/10 00:49:49;;;;;;;6.05;4.05;;;18.80;83.40;;;;;;5029726;28;20417;-85
2021/05/10 00:52:17;;;;;;;4.10;3.13;;;18.90;83.70;;;;;;5057160;28;20046;-84
2021/05/10 00:54:43;;;;;;;2.67;2.28;;;18.90;83.60;;;;;;5087701;28;20043;-84
2021/05/10 00:57:11;;;;;;;4.30;2.75;;;18.90;83.40;;;;;;5076002;28;20046;-84
2021/05/10 00:59:41;;;;;;;4.80;2.72;;;18.90;83.40;;;;;;5073859;28;20047;-84
2021/05/10 01:02:17;;;;;;;3.03;2.20;;;18.90;83.30;;;;;;5088055;28;20051;-84
2021/05/10 01:04:45;;;;;;;3.97;2.55;;;18.90;83.90;;;;;;5093332;28;20888;-85
2021/05/10 01:07:13;;;;;;;2.83;2.35;;;18.90;83.10;;;;;;5079318;28;20043;-84
2021/05/10 01:09:40;;;;;;;2.42;1.95;;;18.90;83.10;;;;;;5069488;28;20044;-84
2021/05/10 01:12:09;;;;;;;3.08;1.92;;;18.90;83.10;;;;;;5053426;28;20036;-84
2021/05/10 01:14:36;;;;;;;4.80;3.05;;;18.80;83.10;;;;;;5083075;28;20054;-85
2021/05/10 01:17:03;;;;;;;2.97;2.10;;;18.80;83.60;;;;;;5037181;28;20055;-84
2021/05/10 01:19:30;;;;;;;3.60;2.63;;;18.90;83.00;;;;;;5065627;28;20479;-84
2021/05/10 01:21:58;;;;;;;4.60;2.42;;;18.80;82.90;;;;;;5069719;28;20036;-84
2021/05/10 01:24:28;;;;;;;3.38;2.28;;;18.80;83.00;;;;;;5061611;28;20047;-84
2021/05/10 01:26:57;;;;;;;5.95;2.25;;;18.80;83.00;;;;;;5047221;28;20028;-84
2021/05/10 01:29:25;;;;;;;2.55;2.00;;;18.80;83.00;;;;;;5066172;28;20052;-84
2021/05/10 01:31:51;;;;;;;2.47;1.60;;;18.80;82.90;;;;;;5063257;28;20048;-84
2021/05/10 01:34:18;;;;;;;6.03;1.45;;;18.80;82.80;;;;;;5071171;28;20024;-84
2021/05/10 01:36:45;;;;;;;2.50;1.52;;;18.80;82.90;;;;;;5048971;28;20040;-84
2021/05/10 01:39:12;;;;;;;2.03;0.88;;;18.80;82.80;;;;;;5046982;28;20035;-84
2021/05/10 01:41:39;;;;;;;4.70;1.75;;;18.70;82.80;;;;;;5064373;28;20023;-84
2021/05/10 01:44:07;;;;;;;4.35;1.67;;;18.70;82.80;;;;;;5070846;28;20039;-84
2021/05/10 01:46:34;;;;;;;2.78;2.25;;;18.70;83.00;;;;;;5051936;28;20422;-84
2021/05/10 01:49:02;;;;;;;4.10;1.52;;;18.70;83.10;;;;;;5054101;28;20031;-84
2021/05/10 01:51:28;;;;;;;1.73;1.00;;;18.60;83.00;;;;;;5072863;28;20040;-84
2021/05/10 01:53:55;;;;;;;2.80;1.23;;;18.60;83.00;;;;;;5052802;28;20846;-84
2021/05/10 01:56:21;;;;;;;2.47;1.60;;;18.60;83.00;;;;;;5054151;27;20036;-84
2021/05/10 01:58:53;;;;;;;4.10;1.45;;;18.50;82.90;;;;;;5068416;28;20478;-84
2021/05/10 02:01:21;;;;;;;1.92;1.13;;;18.50;83.10;;;;;;5068871;28;20044;-84
2021/05/10 02:03:48;;;;;;;1.92;1.35;;;18.40;83.20;;;;;;5063986;28;20051;-84
2021/05/10 02:06:15;;;;;;;4.60;1.80;;;18.40;83.20;;;;;;5082658;28;20433;-84
2021/05/10 02:08:44;;;;;;;2.80;1.70;;;18.40;83.40;;;;;;5070567;28;20046;-84
2021/05/10 02:11:10;;;;;;;2.15;1.40;;;18.30;83.40;;;;;;5070870;28;20388;-92
2021/05/10 02:13:37;;;;;;;2.95;1.20;;;18.30;83.60;;;;;;5050166;28;20044;-91
2021/05/10 02:16:04;;;;;;;4.22;2.30;;;18.20;83.70;;;;;;5025442;28;20517;-91
2021/05/10 02:18:34;;;;;;;3.28;2.15;;;18.20;84.20;;;;;;5055411;28;20040;-91
2021/05/10 02:21:01;;;;;;;2.35;1.77;;;18.10;84.40;;;;;;5063532;28;20043;-91
2021/05/10 02:23:34;;;;;;;2.90;1.48;;;18.10;85.00;;;;;;5058761;28;20031;-90
2021/05/10 02:26:05;;;;;;;2.22;1.30;;;18.10;84.60;;;;;;5067206;28;20486;-92
2021/05/10 02:28:32;;;;;;;4.10;1.30;;;18.10;84.60;;;;;;5051439;28;20043;-92
2021/05/10 02:31:01;;;;;;;1.85;1.20;;;18.00;85.10;;;;;;5059503;28;20035;-91
2021/05/10 02:33:31;;;;;;;2.00;1.27;;;18.00;84.50;;;;;;5054595;28;20043;-91
2021/05/10 02:35:58;;;;;;;3.22;1.10;;;18.00;84.70;;;;;;5059722;28;20424;-92
2021/05/10 02:38:26;;;;;;;3.05;1.50;;;18.00;84.70;;;;;;5059429;28;20035;-86
2021/05/10 02:41:02;;;;;;;2.13;0.93;;;17.90;84.80;;;;;;5059716;27;20035;-91
2021/05/10 02:43:29;;;;;;;5.57;1.80;;;17.90;84.90;;;;;;5059315;28;20039;-86
2021/05/10 02:45:55;;;;;;;2.17;1.05;;;17.90;85.00;;;;;;5076689;28;20475;-86
2021/05/10 02:48:23;;;;;;;2.65;1.02;;;17.90;85.00;;;;;;5056903;28;20047;-86
2021/05/10 02:50:49;;;;;;;1.30;0.70;;;17.90;84.80;;;;;;5090112;28;20383;-87
2021/05/10 02:53:38;;;;;;;2.15;1.13;;;17.90;84.60;;;;;;5057770;28;20043;-86
2021/05/10 02:56:05;;;;;;;2.63;1.00;;;17.90;84.50;;;;;;5076469;28;20055;-91
2021/05/10 02:58:31;;;;;;;3.15;1.10;;;17.90;84.40;;;;;;5050185;28;20051;-91
2021/05/10 03:00:58;;;;;;;3.30;1.13;;;17.90;84.20;;;;;;5048809;28;20032;-92
2021/05/10 03:03:24;;;;;;;2.35;0.90;;;18.00;84.10;;;;;;5037416;28;20037;-92
2021/05/10 03:05:51;;;;;;;1.00;0.60;;;17.90;84.10;;;;;;5052887;28;20040;-92
2021/05/10 03:08:20;;;;;;;2.13;1.10;;;17.90;84.00;;;;;;5054890;28;20035;-93
2021/05/10 03:10:47;;;;;;;2.60;0.80;;;17.90;83.90;;;;;;5059490;28;20032;-93
2021/05/10 03:13:14;;;;;;;2.53;0.88;;;17.90;83.90;;;;;;5057776;28;20471;-92
2021/05/10 03:15:40;;;;;;;3.70;0.90;;;17.90;83.90;;;;;;5059811;28;20035;-93
2021/05/10 03:18:07;;;;;;;2.10;0.80;;;17.90;83.90;;;;;;5058599;28;20036;-92
2021/05/10 03:20:34;;;;;;;2.00;0.75;;;17.90;83.90;;;;;;5043409;28;20046;-92
2021/05/10 03:23:03;;;;;;;1.70;0.90;;;17.80;83.90;;;;;;5060642;28;20028;-92
2021/05/10 03:25:30;;;;;;;4.93;1.00;;;17.80;84.00;;;;;;5049418;28;20028;-91
2021/05/10 03:27:56;;;;;;;1.83;0.80;;;17.80;84.20;;;;;;5058018;28;20052;-92
2021/05/10 03:30:25;;;;;;;4.18;0.80;;;17.70;84.80;;;;;;5058687;28;20032;-92
2021/05/10 03:32:52;;;;;;;1.30;0.60;;;17.60;85.30;;;;;;5057715;28;20395;-92
2021/05/10 03:35:20;;;;;;;1.67;0.63;;;17.50;85.60;;;;;;5058987;28;20687;-91
2021/05/10 03:37:50;;;;;;;1.45;0.70;;;17.50;85.80;;;;;;5056893;28;20050;-91
2021/05/10 03:40:18;;;;;;;1.35;0.80;;;17.40;85.80;;;;;;5056627;28;20036;-91
2021/05/10 03:42:46;;;;;;;0.80;0.40;;;17.40;85.70;;;;;;5060732;27;20039;-91
2021/05/10 03:45:14;;;;;;;2.55;1.08;;;17.40;85.50;;;;;;5040592;28;20043;-91
2021/05/10 03:47:41;;;;;;;2.08;0.60;;;17.50;85.60;;;;;;5059140;28;20479;-91
2021/05/10 03:50:19;;;;;;;2.60;0.60;;;17.50;85.50;;;;;;5055300;28;20500;-91
2021/05/10 03:52:47;;;;;;;1.63;0.50;;;17.50;85.40;;;;;;5064965;28;20039;-92
2021/05/10 03:55:16;;;;;;;2.15;0.40;;;17.50;85.10;;;;;;5075152;28;20055;-92
2021/05/10 03:57:44;;;;;;;4.93;0.60;;;17.50;84.80;;;;;;5057175;28;20040;-91
2021/05/10 04:00:16;;;;;;;2.22;0.50;;;17.50;84.60;;;;;;5054577;28;20032;-92
2021/05/10 04:02:44;;;;;;;0.90;0.45;;;17.50;84.40;;;;;;5056378;28;20044;-91
2021/05/10 04:15:21;;;;;;;1.58;0.40;;;17.80;82.80;;;;;;5066835;28;20041;-90
2021/05/10 04:17:48;;;;;;;2.15;0.40;;;17.80;82.30;;;;;;5059573;28;20040;-91
2021/05/10 04:20:15;;;;;;;1.88;0.50;;;17.90;81.00;;;;;;5051771;28;20046;-90
2021/05/10 04:22:43;;;;;;;1.85;0.45;;;18.00;80.60;;;;;;5040740;28;20036;-90
2021/05/10 04:25:12;;;;;;;1.30;0.40;;;18.10;79.70;;;;;;5040236;28;20042;-90
2021/05/10 04:27:40;;;;;;;3.40;0.40;;;18.20;78.70;;;;;;5035638;28;20040;-91
2021/05/10 04:30:07;;;;;;;2.65;0.40;;;18.40;78.20;;;;;;5047239;28;20043;-91
2021/05/10 04:32:34;;;;;;;1.67;0.35;;;18.50;78.10;;;;;;5037675;28;20044;-91
2021/05/10 04:35:01;;;;;;;4.15;0.77;;;18.50;77.70;;;;;;5053066;28;20039;-91
2021/05/10 04:37:27;;;;;;;4.65;0.45;;;18.60;76.90;;;;;;5049172;28;20046;-91
2021/05/10 04:39:54;;;;;;;2.15;0.30;;;18.60;76.50;;;;;;5041849;28;20025;-92
2021/05/10 04:42:23;;;;;;;3.22;0.40;;;18.70;76.40;;;;;;5048259;28;20046;-92
2021/05/10 04:44:52;;;;;;;2.38;0.40;;;18.70;76.10;;;;;;5042646;28;20044;-91
2021/05/10 04:47:19;;;;;;;2.25;0.57;;;18.80;75.60;;;;;;5052107;28;20414;-91
2021/05/10 04:49:51;;;;;;;3.78;0.50;;;18.80;74.90;;;;;;5045715;28;20029;-92
2021/05/10 04:52:21;;;;;;;4.93;0.88;;;18.80;74.70;;;;;;5064363;28;20028;-91
2021/05/10 04:54:50;;;;;;;4.22;0.40;;;18.90;74.40;;;;;;5063689;28;20510;-92
2021/05/10 04:57:17;;;;;;;1.83;0.30;;;18.90;74.20;;;;;;5052830;28;20031;-92
2021/05/10 04:59:46;;;;;;;1.75;0.50;;;19.00;73.80;;;;;;5048123;28;20050;-91
2021/05/10 05:02:13;;;;;;;2.53;0.52;;;19.10;73.60;;;;;;5025600;28;20029;-92
2021/05/10 05:04:39;;;;;;;3.25;0.40;;;19.20;73.60;;;;;;5066159;28;20028;-92
2021/05/10 05:07:08;;;;;;;2.05;0.40;;;19.20;73.50;;;;;;5043704;28;20542;-90
2021/05/10 05:09:35;;;;;;;1.40;0.50;;;19.10;73.70;;;;;;5051324;28;20044;-92
2021/05/10 05:12:02;;;;;;;1.67;0.40;;;19.10;73.70;;;;;;5053949;28;20043;-92
2021/05/10 05:14:31;;;;;;;5.72;0.50;;;19.10;73.60;;;;;;5050780;28;20052;-92
2021/05/10 05:16:58;;;;;;;7.07;0.50;;;19.10;72.60;;;;;;5041402;28;20043;-92
2021/05/10 05:19:24;;;;;;;2.50;0.50;;;19.20;72.60;;;;;;5051197;28;20510;-91
2021/05/10 05:21:51;;;;;;;4.45;0.43;;;19.20;72.30;;;;;;5047901;28;20036;-91
2021/05/10 05:24:18;;;;;;;7.65;0.73;;;19.30;72.40;;;;;;5048624;28;20039;-92
2021/05/10 05:26:48;;;;;;;5.25;0.77;;;19.30;72.30;;;;;;5055197;28;20067;-91
2021/05/10 05:29:17;;;;;;;3.75;0.50;;;19.30;72.30;;;;;;5039958;28;20058;-92
2021/05/10 05:31:49;;;;;;;3.45;0.70;;;19.40;72.60;;;;;;5044600;28;20050;-92
2021/05/10 05:34:17;;;;;;;5.60;0.82;;;19.40;72.90;;;;;;5032882;28;20050;-91
2021/05/10 05:36:44;;;;;;;4.68;0.98;;;19.40;73.20;;;;;;5047010;28;20045;-92
2021/05/10 05:39:14;;;;;;;5.90;0.82;;;19.40;73.30;;;;;;5054906;28;20051;-92
2021/05/10 05:41:41;;;;;;;8.07;0.50;;;19.40;73.50;;;;;;5071676;28;20035;-93
2021/05/10 05:44:13;;;;;;;4.60;0.57;;;19.40;73.80;;;;;;5055127;28;20039;-93
2021/05/10 05:46:43;;;;;;;4.93;0.55;;;19.40;73.80;;;;;;5067195;28;20039;-92
2021/05/10 05:49:12;;;;;;;1.45;0.43;;;19.30;73.80;;;;;;5050274;28;20044;-93
2021/05/10 05:51:39;;;;;;;4.00;0.50;;;19.30;74.80;;;;;;5049775;28;20050;-93
2021/05/10 05:54:07;;;;;;;8.02;0.50;;;19.20;74.50;;;;;;5039705;28;20390;-90
2021/05/10 05:56:35;;;;;;;1.00;0.30;;;19.10;74.80;;;;;;5037345;28;20641;-91
2021/05/10 05:59:03;;;;;;;1.40;0.40;;;19.10;75.70;;;;;;5038682;28;20039;-92
2021/05/10 06:01:30;;;;;;;3.03;0.45;;;19.10;75.50;;;;;;5060668;28;20040;-91
2021/05/10 06:03:57;;;;;;;2.33;0.30;;;19.10;76.30;;;;;;5054198;28;20027;-92
2021/05/10 06:06:24;;;;;;;2.20;0.38;;;19.00;77.30;;;;;;5055716;28;20036;-91
2021/05/10 06:08:50;;;;;;;2.47;0.30;;;18.90;77.50;;;;;;5044464;28;20052;-90
2021/05/10 06:11:17;;;;;;;1.23;0.40;;;18.90;77.80;;;;;;5040895;28;20059;-85
2021/05/10 06:13:47;;;;;;;3.05;0.30;;;18.80;77.30;;;;;;5040774;28;20784;-89
2021/05/10 06:16:14;;;;;;;3.50;0.63;;;18.90;77.40;;;;;;5046499;28;20035;-89
2021/05/10 06:18:43;;;;;;;4.30;1.90;;;18.90;77.30;;;;;;5039833;28;20040;-87
2021/05/10 06:21:10;;;;;;;4.40;1.20;;;19.00;77.20;;;;;;5056581;28;20035;-81
2021/05/10 06:23:39;;;;;;;4.50;0.50;;;19.10;77.10;;;;;;5060417;28;20032;-82
2021/05/10 06:26:07;;;;;;;4.22;0.70;;;19.20;76.40;;;;;;5080548;28;20467;-83
2021/05/10 06:28:34;;;;;;;2.83;0.65;;;19.60;76.20;;;;;;5026162;28;20043;-81
2021/05/10 06:31:00;;;;;;;8.73;4.53;;;20.10;75.40;;;;;;5042706;28;20052;-81
2021/05/10 06:33:27;;;;;;;3.03;0.50;;;20.60;73.80;;;;;;5040574;28;20046;-81
2021/05/10 06:35:53;;;;;;;0.98;0.20;;;21.00;72.50;;;;;;5045079;28;20039;-80
2021/05/10 06:38:20;;;;;;;2.17;0.60;;;21.30;70.50;;;;;;5041125;28;20051;-81
2021/05/10 06:40:46;;;;;;;4.10;3.03;;;21.30;69.70;;;;;;5056815;28;20044;-82
2021/05/10 06:43:13;;;;;;;2.92;0.40;;;21.10;69.40;;;;;;5057214;28;20044;-83
2021/05/10 06:45:39;;;;;;;1.17;0.20;;;20.70;70.00;;;;;;5029763;28;20036;-81
2021/05/10 06:48:06;;;;;;;5.00;0.20;;;20.50;70.70;;;;;;5047026;28;20043;-89
2021/05/10 06:50:32;;;;;;;1.88;0.17;;;20.30;71.40;;;;;;5046243;28;20041;-89
2021/05/10 06:52:59;;;;;;;0.75;0.13;;;20.20;71.10;;;;;;5040239;28;20036;-89
2021/05/10 06:55:25;;;;;;;1.00;0.20;;;20.10;71.20;;;;;;5024050;28;20645;-89
2021/05/10 06:57:52;;;;;;;0.65;0.20;;;19.90;71.20;;;;;;5044262;28;20936;-89
2021/05/10 07:00:24;;;;;;;1.38;0.20;;;19.80;71.10;;;;;;5041482;28;20391;-89
2021/05/10 07:02:51;;;;;;;;;;;19.80;71.30;;;;;;5039818;28;20040;-88
2021/05/10 07:05:18;;;;;;;0.75;0.10;;;19.80;71.90;;;;;;5043293;28;19923;-88
2021/05/10 07:07:50;;;;;;;1.25;0.20;;;19.80;72.10;;;;;;5008112;28;20040;-89
2021/05/10 07:10:17;;;;;;;1.50;0.20;;;19.90;72.30;;;;;;5057906;28;20032;-90
2021/05/10 07:12:43;;;;;;;1.05;0.20;;;20.00;71.90;;;;;;5026874;28;20066;-88
2021/05/10 07:15:10;;;;;;;2.90;0.20;;;20.00;71.80;;;;;;5040010;28;20040;-90
2021/05/10 07:17:38;;;;;;;2.13;0.22;;;20.00;72.10;;;;;;5023721;28;20040;-89
2021/05/10 07:20:05;;;;;;;0.98;0.20;;;20.10;72.30;;;;;;5022304;28;20143;-90
2021/05/10 07:22:31;;;;;;;1.48;0.30;;;20.00;71.70;;;;;;5019413;28;20040;-90
2021/05/10 07:24:58;;;;;;;0.85;0.20;;;20.10;71.60;;;;;;5036525;28;20033;-86
2021/05/10 07:27:24;;;;;;;0.50;0.30;;;20.00;71.70;;;;;;5022888;28;20047;-89
2021/05/10 07:29:51;;;;;;;1.02;0.20;;;20.10;71.60;;;;;;5028546;28;20055;-90
2021/05/10 07:32:17;;;;;;;1.10;0.20;;;20.20;70.70;;;;;;5052951;28;20052;-89
2021/05/10 07:34:44;;;;;;;2.25;0.50;;;20.30;70.20;;;;;;5020843;28;20037;-88
2021/05/10 07:37:10;;;;;;;3.95;0.30;;;20.30;69.70;;;;;;5055534;28;20055;-87
2021/05/10 07:39:37;;;;;;;2.00;0.50;;;20.20;69.60;;;;;;5022155;28;20040;-89
2021/05/10 07:42:04;;;;;;;2.88;0.43;;;20.20;69.80;;;;;;5024446;28;20033;-89
2021/05/10 07:44:30;;;;;;;2.47;0.47;;;20.30;70.10;;;;;;5038148;28;20032;-89
2021/05/10 07:46:57;;;;;;;1.55;0.30;;;20.50;69.40;;;;;;5054590;28;20052;-88
2021/05/10 07:49:23;;;;;;;1.15;0.40;;;20.80;68.50;;;;;;5042335;28;20074;-89
2021/05/10 07:51:50;;;;;;;2.40;0.30;;;20.90;68.30;;;;;;5022269;28;20505;-90
2021/05/10 07:54:16;;;;;;;5.70;0.50;;;20.80;68.40;;;;;;5021344;28;20039;-86
2021/05/10 07:56:43;;;;;;;2.80;0.40;;;20.80;68.70;;;;;;5040777;28;20051;-88
2021/05/10 07:59:11;;;;;;;1.00;0.40;;;20.60;69.00;;;;;;5035170;28;20375;-88
2021/05/10 08:01:38;;;;;;;1.40;0.50;;;20.50;69.50;;;;;;5022347;28;20352;-89
2021/05/10 08:04:05;;;;;;;2.17;0.50;;;20.30;70.10;;;;;;5038036;28;20032;-89
2021/05/10 08:06:32;;;;;;;1.85;0.40;;;20.20;70.60;;;;;;5038210;28;20044;-90
2021/05/10 08:09:04;;;;;;;1.27;0.43;;;20.00;70.90;;;;;;5035815;28;20487;-89
2021/05/10 08:11:31;;;;;;;3.45;0.50;;;19.90;71.50;;;;;;5035705;28;20519;-89
2021/05/10 08:13:58;;;;;;;1.13;0.50;;;19.90;71.80;;;;;;5046607;28;20052;-89
2021/05/10 08:16:24;;;;;;;2.63;0.47;;;19.90;71.90;;;;;;5035018;28;20045;-89
2021/05/10 08:18:51;;;;;;;1.10;0.40;;;19.90;72.00;;;;;;5024619;28;20403;-89
2021/05/10 08:21:17;;;;;;;0.85;0.32;;;19.80;72.80;;;;;;5022866;28;20044;-90
2021/05/10 08:23:44;;;;;;;1.02;0.50;;;19.70;72.50;;;;;;5021004;28;20047;-86
2021/05/10 08:26:13;;;;;;;1.20;0.50;;;19.60;72.80;;;;;;5064916;28;20048;-92
2021/05/10 08:28:40;;;;;;;2.95;0.70;;;19.50;73.00;;;;;;5027370;28;20039;-82
2021/05/10 08:31:07;;;;;;;1.90;0.68;;;19.50;73.30;;;;;;5043900;28;20056;-82
2021/05/10 08:33:34;;;;;;;6.40;3.83;;;19.50;73.50;;;;;;5048901;28;20064;-83
2021/05/10 08:36:00;;;;;;;2.15;0.70;;;19.60;73.80;;;;;;5046444;28;20486;-88
2021/05/10 08:38:27;;;;;;;7.45;0.45;;;19.80;73.50;;;;;;5049728;28;20032;-88
2021/05/10 08:40:53;;;;;;;1.02;0.40;;;19.90;72.90;;;;;;5034593;28;20027;-88
2021/05/10 08:43:26;;;;;;;1.27;0.40;;;19.90;72.70;;;;;;5086317;28;20040;-88
2021/05/10 08:45:57;;;;;;;;;;;19.70;73.20;;;;;;5047885;28;20044;-89
2021/05/10 08:48:25;;;;;;;3.50;0.45;;;19.60;74.20;;;;;;5057972;28;19912;-81
2021/05/10 08:50:52;;;;;;;1.88;0.43;;;19.30;76.40;;;;;;5061965;28;20048;-85
2021/05/10 08:53:39;;;;;;;1.83;0.50;;;19.10;78.00;;;;;;5068813;28;20047;-80
2021/05/10 08:56:07;;;;;;;2.53;1.13;;;18.90;79.30;;;;;;5049002;28;20055;-86
2021/05/10 08:58:40;;;;;;;3.60;0.60;;;19.00;79.90;;;;;;5069623;28;20044;-87
2021/05/10 09:01:08;;;;;;;3.30;0.60;;;19.20;79.80;;;;;;5056763;28;20135;-86
2021/05/10 09:03:44;;;;;;;1.77;0.40;;;19.40;79.40;;;;;;5055469;28;20478;-86
2021/05/10 09:06:31;;;;;;;2.45;0.60;;;19.50;78.80;;;;;;5068028;28;20028;-84
2021/05/10 09:09:08;;;;;;;1.80;0.50;;;19.50;78.40;;;;;;5041792;28;20048;-81
2021/05/10 09:11:56;;;;;;;1.55;0.60;;;19.40;78.30;;;;;;5066386;28;20050;-81
2021/05/10 09:14:30;;;;;;;0.98;0.30;;;19.40;78.20;;;;;;5079656;28;20047;-83
2021/05/10 09:16:57;;;;;;;1.75;0.50;;;19.40;76.90;;;;;;5061236;28;20383;-84
2021/05/10 09:19:52;;;;;;;3.15;0.73;;;19.40;75.30;;;;;;5058012;28;20046;-83
2021/05/10 09:22:18;;;;;;;2.58;0.55;;;19.50;75.20;;;;;;5076512;28;20032;-83
2021/05/10 09:24:50;;;;;;;1.48;0.40;;;19.60;74.60;;;;;;5055630;28;20043;-83
2021/05/10 09:27:25;;;;;;;1.05;0.40;;;19.60;74.10;;;;;;5095185;28;20454;-84
2021/05/10 09:30:20;;;;;;;2.00;0.40;;;19.70;74.20;;;;;;5069147;28;20506;-87
2021/05/10 09:32:54;;;;;;;2.85;0.60;;;19.70;73.50;;;;;;5086879;28;20042;-82
2021/05/10 09:35:29;;;;;;;2.22;0.82;;;19.70;73.20;;;;;;5087802;28;20039;-83
2021/05/10 09:37:57;;;;;;;1.33;0.65;;;19.70;73.20;;;;;;5058597;28;20071;-82
2021/05/10 09:40:31;;;;;;;1.58;0.60;;;19.80;72.80;;;;;;5057399;28;20528;-82
2021/05/10 09:42:59;;;;;;;1.10;0.45;;;19.80;72.40;;;;;;5053226;28;20372;-82
2021/05/10 09:45:28;;;;;;;1.63;0.60;;;19.80;72.50;;;;;;5075469;28;20036;-81
2021/05/10 09:48:09;;;;;;;1.52;0.68;;;19.90;72.70;;;;;;5071037;28;20036;-82
2021/05/10 09:50:41;;;;;;;1.15;0.50;;;20.10;72.00;;;;;;5056976;28;20036;-84
2021/05/10 09:53:13;;;;;;;2.80;0.40;;;20.20;71.50;;;;;;5080703;28;20487;-83
2021/05/10 09:55:43;;;;;;;1.65;0.60;;;20.30;71.40;;;;;;5099122;28;20036;-83
2021/05/10 09:58:09;;;;;;;2.22;0.50;;;20.40;70.80;;;;;;5060590;28;20793;-83
2021/05/10 10:00:38;;;;;;;2.40;0.50;;;20.50;70.70;;;;;;5072213;28;20426;-83
2021/05/10 10:03:05;;;;;;;1.15;0.40;;;20.50;70.70;;;;;;5071382;28;20063;-85
2021/05/10 10:05:33;;;;;;;2.65;0.52;;;20.50;71.00;;;;;;5077486;28;20036;-85
2021/05/10 10:08:01;;;;;;;1.83;0.50;;;20.50;70.60;;;;;;5045070;28;20031;-85
2021/05/10 10:10:28;;;;;;;1.83;0.50;;;20.30;70.70;;;;;;5055232;28;20054;-86
2021/05/10 10:12:54;;;;;;;1.25;0.40;;;20.20;71.00;;;;;;5061592;28;20059;-86
2021/05/10 10:15:21;;;;;;;2.90;0.40;;;20.20;71.30;;;;;;5075392;28;20410;-85
2021/05/10 10:17:48;;;;;;;2.42;0.60;;;20.20;72.00;;;;;;5060248;27;20516;-86
2021/05/10 10:20:17;;;;;;;1.48;0.40;;;20.30;71.60;;;;;;5068716;27;20059;-85
2021/05/10 10:22:43;;;;;;;1.90;0.70;;;20.30;71.80;;;;;;5054663;27;20036;-86
2021/05/10 10:25:10;;;;;;;2.75;0.50;;;20.30;71.60;;;;;;5070866;28;20157;-85
2021/05/10 10:27:37;;;;;;;1.15;0.55;;;20.30;72.00;;;;;;5054537;27;20043;-84
2021/05/10 10:30:05;;;;;;;1.75;0.50;;;20.20;72.10;;;;;;5056036;27;20422;-85
2021/05/10 10:32:33;;;;;;;1.35;0.60;;;20.20;72.50;;;;;;5053193;28;20052;-87
2021/05/10 10:35:01;;;;;;;1.25;0.60;;;20.30;72.30;;;;;;5050750;28;20036;-84
2021/05/10 10:37:28;;;;;;;2.10;0.80;;;20.30;72.20;;;;;;5038227;28;20043;-86
2021/05/10 10:40:02;;;;;;;2.95;0.50;;;20.20;72.00;;;;;;5069249;27;20052;-86
2021/05/10 10:42:30;;;;;;;1.10;0.65;;;20.10;72.50;;;;;;5062356;28;20055;-86
2021/05/10 10:45:02;;;;;;;2.50;0.90;;;20.00;72.90;;;;;;5061409;28;20028;-86
2021/05/10 10:47:47;;;;;;;1.20;0.70;;;19.70;73.20;;;;;;5069989;28;20410;-85
2021/05/10 10:50:16;;;;;;;1.85;0.98;;;19.50;74.00;;;;;;5067541;27;20787;-83
2021/05/10 10:52:48;;;;;;;1.83;0.55;;;19.40;74.80;;;;;;5085557;28;20510;-84
2021/05/10 10:55:24;;;;;;;1.52;0.80;;;19.30;75.20;;;;;;5082146;28;20043;-84
2021/05/10 10:57:53;;;;;;;2.17;1.67;;;19.40;75.40;;;;;;5088178;27;20027;-84
2021/05/10 11:00:21;;;;;;;2.28;1.20;;;19.20;75.70;;;;;;5082054;27;20074;-84
2021/05/10 11:02:50;;;;;;;3.10;1.30;;;19.00;76.50;;;;;;5049989;27;20031;-80
2021/05/10 11:05:22;;;;;;;1.88;0.80;;;19.00;77.30;;;;;;5078297;27;20039;-79
2021/05/10 11:07:51;;;;;;;4.05;1.50;;;19.10;77.70;;;;;;5067982;27;20047;-79
2021/05/10 11:10:54;;;;;;;2.83;1.10;;;19.30;78.00;;;;;;5086114;27;20042;-79
2021/05/10 11:13:30;;;;;;;3.17;1.50;;;19.40;78.20;;;;;;5064104;28;20478;-79
2021/05/10 11:15:57;;;;;;;2.33;1.17;;;19.40;79.00;;;;;;5037936;28;20035;-78
2021/05/10 11:18:36;;;;;;;2.55;1.40;;;19.20;79.30;;;;;;5060995;28;20050;-78
2021/05/10 11:21:08;;;;;;;2.15;1.17;;;19.30;80.10;;;;;;5052793;28;20040;-78
2021/05/10 11:23:36;;;;;;;3.05;1.58;;;19.40;80.50;;;;;;5071133;28;20045;-78
2021/05/10 11:26:07;;;;;;;2.58;1.73;;;19.60;80.10;;;;;;5064271;28;20470;-79
2021/05/10 11:28:34;;;;;;;2.00;1.35;;;19.50;79.60;;;;;;5037111;28;20039;-77
2021/05/10 11:31:05;;;;;;;2.38;1.50;;;19.30;79.90;;;;;;5059080;28;20044;-78
2021/05/10 11:33:56;;;;;;;3.47;1.40;;;19.00;80.70;;;;;;5061363;28;20055;-79
2021/05/10 11:36:30;;;;;;;3.88;2.10;;;18.60;82.10;;;;;;5041973;28;20040;-79
2021/05/10 11:38:59;;;;;;;2.40;1.88;;;18.20;83.70;;;;;;5088414;28;20043;-79
2021/05/10 11:41:43;;;;;;;2.78;1.83;;;17.90;84.90;;;;;;5071785;28;20040;-80
2021/05/10 11:44:19;;;;;;;3.25;1.98;;;17.70;85.70;;;;;;5047539;28;20127;-81
2021/05/10 11:46:50;;;;;;;2.63;2.22;;;17.50;86.40;;;;;;5073989;28;20032;-80
2021/05/10 11:49:35;;;;;;;2.23;1.63;;;17.50;87.00;;;;;;5046970;28;20036;-79
2021/05/10 11:52:09;;;;;;;3.28;1.80;;;17.30;87.00;;;;;;5052216;28;20039;-78
2021/05/10 11:54:39;;;;;;;3.13;2.30;;;17.10;87.40;;;;;;5050005;28;20039;-78
2021/05/10 11:57:07;;;;;;;2.95;1.45;;;16.80;88.00;;;;;;5063592;28;20825;-78
2021/05/10 12:02:26;;;;;;;1.60;1.08;;;16.80;89.20;;;;;;5066363;28;20036;-82
2021/05/10 12:04:58;;;;;;;1.80;0.93;;;16.90;89.40;;;;;;5090653;28;20044;-78
2021/05/10 12:07:27;;;;;;;1.33;0.90;;;17.10;89.40;;;;;;5054837;28;20035;-82
2021/05/10 12:10:18;;;;;;;2.00;1.05;;;17.40;89.30;;;;;;5090647;28;20039;-79
2021/05/10 12:12:49;;;;;;;1.35;0.90;;;17.70;89.40;;;;;;5068739;28;20055;-78
2021/05/10 12:15:24;;;;;;;2.20;1.00;;;18.00;88.70;;;;;;5103211;28;20518;-78
2021/05/10 12:17:53;;;;;;;1.65;0.80;;;18.40;89.10;;;;;;5105581;28;20035;-78
2021/05/10 12:20:24;;;;;;;2.22;1.05;;;19.00;88.80;;;;;;5085073;28;20039;-80
2021/05/10 12:22:56;;;;;;;2.78;0.80;;;19.40;87.10;;;;;;5101999;28;20050;-78
2021/05/10 12:25:24;;;;;;;1.73;0.80;;;19.80;86.70;;;;;;5103880;28;20027;-78
2021/05/10 12:28:14;;;;;;;1.45;0.80;;;20.20;86.30;;;;;;5085217;28;20778;-78
2021/05/10 12:30:44;;;;;;;2.35;1.00;;;20.90;85.10;;;;;;5070112;28;20482;-79
2021/05/10 12:33:15;;;;;;;2.17;0.80;;;21.80;83.60;;;;;;5075322;28;20394;-78
2021/05/10 12:35:47;;;;;;;1.52;0.95;;;22.90;81.70;;;;;;5084370;28;20517;-79
2021/05/10 12:38:38;;;;;;;1.58;0.70;;;24.00;77.40;;;;;;5051888;28;20035;-78
2021/05/10 12:41:19;;;;;;;6.65;0.80;;;24.90;75.70;;;;;;5056898;28;20058;-79
2021/05/10 12:43:47;;;;;;;1.58;0.60;;;25.70;72.50;;;;;;5101626;28;20051;-78
2021/05/10 12:46:14;;;;;;;1.35;0.63;;;26.30;69.60;;;;;;5082809;28;20043;-79
2021/05/10 12:48:43;;;;;;;2.63;0.50;;;26.20;68.40;;;;;;5083229;28;20050;-82
2021/05/10 12:51:12;;;;;;;1.42;0.90;;;26.40;68.40;;;;;;5082377;28;20043;-79
2021/05/10 12:53:46;;;;;;;2.22;0.85;;;26.90;67.60;;;;;;5083113;28;20050;-79
2021/05/10 12:56:16;;;;;;;2.25;0.82;;;27.10;65.20;;;;;;5104365;28;20031;-78
2021/05/10 12:58:46;;;;;;;1.77;0.77;;;26.80;64.70;;;;;;5065357;28;20035;-79
2021/05/10 13:01:23;;;;;;;1.58;0.90;;;27.00;65.90;;;;;;5080967;28;20797;-78
2021/05/10 13:04:00;;;;;;;2.63;1.13;;;27.70;63.90;;;;;;5097897;28;20891;-79
2021/05/10 13:06:31;;;;;;;7.22;4.85;;;28.60;61.30;;;;;;5066014;28;20031;-78
2021/05/10 13:09:00;;;;;;;38.17;31.20;;;29.30;59.60;;;;;;5082124;28;20450;-79
2021/05/10 13:11:40;;;;;;;5.13;4.63;;;29.90;57.10;;;;;;5099411;27;20039;-77